Latest Coastal Weather Observations for Lucinda

IDQ60701

Issued at 11:42 am EST Friday 6 May 2016 (issued every 10 minutes, with the page automatically refreshed every 10 minutes)

About coastal observations | Map of coastal stations | Coastal observations for QLD | Marine services | Other Formats
Station Details ID: 032141 Name: LUCINDA POINT Lat: -18.52 Lon: 146.39 Height: 10.0 m
Data from the previous 72 hours. | See also: Recent months at Lucinda
Date/Time
EST
Temp

°C
Wind Pressure Rain
since 9am
mm
Weather Cloud Vis
km
Sea
Height
m
Swell
Dir
 
Speed
knots
Gust
knots
hPa Trend Height
m
Period
s
Dir
06/11:30am 27.6 SSE 5 8 1015.2 - 0.2 - - - - - - -
06/11:00am 27.2 S 5 7 1015.7 - 0.2 - - - - - - -
06/10:30am 27.2 SSE 6 11 1015.9 - 0.2 - - - - - - -
06/10:00am 27.8 SE 6 10 1016.0 - 0.2 - - - - - - -
06/09:30am 28.4 E 6 7 1016.1 - 0.0 - - - - - - -
06/09:00am 28.1 E 6 8 1016.0 - 0.0 - - - - - - -
06/08:30am 27.7 E 7 10 1015.6 - 0.0 - - - - - - -
06/08:00am 27.5 E 8 10 1015.4 - 0.0 - - - - - - -
06/07:30am 27.3 E 8 10 1015.2 - 0.0 - - - - - - -
06/07:00am 27.0 E 9 11 1014.5 - 0.0 - - - - - - -
06/06:30am 26.6 E 9 12 1014.1 - 0.0 - - - - - - -
06/06:00am 26.6 ENE 10 12 1013.7 - 0.0 - - - - - - -
06/05:30am 26.6 E 10 12 1013.4 - 0.0 - - - - - - -
06/05:00am 26.7 ENE 12 16 1013.3 - 0.0 - - - - - - -
06/04:30am 26.7 NE 13 14 1013.2 - 0.0 - - - - - - -
06/04:00am 26.7 ENE 11 14 1013.1 - 0.0 - - - - - - -
06/03:30am 26.2 ESE 9 13 1013.1 - 0.0 - - - - - - -
06/03:00am 26.0 ESE 12 16 1013.2 - 0.0 - - - - - - -
06/02:30am 26.1 ESE 10 16 1013.6 - 0.0 - - - - - - -
06/02:00am 26.7 E 11 15 1013.9 - 0.0 - - - - - - -
06/01:30am 26.4 SE 8 13 1014.1 - 0.0 - - - - - - -
06/01:00am 26.4 ESE 9 13 1014.4 - 0.0 - - - - - - -
06/12:30am 25.9 ESE 9 13 1014.6 - 0.0 - - - - - - -
06/12:00am 25.5 ESE 7 11 1014.8 - 0.0 - - - - - - -
 
Date/Time
EST
Temp

°C
Wind Pressure Rain
since 9am
mm
Weather Cloud Vis
km
Sea
Height
m
Swell
Dir
 
Speed
knots
Gust
knots
hPa Trend Height
m
Period
s
Dir
05/11:30pm 26.6 ESE 6 8 1015.0 - 0.0 - - - - - - -
05/11:00pm 26.7 ESE 7 10 1015.4 - 0.0 - - - - - - -
05/10:30pm 26.7 E 7 11 1015.5 - 0.0 - - - - - - -
05/10:00pm 26.7 ESE 9 13 1015.5 - 0.0 - - - - - - -
05/09:30pm 26.6 E 7 11 1015.6 - 0.0 - - - - - - -
05/09:00pm 26.7 ESE 9 12 1015.5 - 0.0 - - - - - - -
05/08:30pm 26.7 E 9 11 1015.5 - 0.0 - - - - - - -
05/08:00pm 26.8 E 7 9 1015.4 - 0.0 - - - - - - -
05/07:30pm 26.8 ESE 7 9 1015.1 - 0.0 - - - - - - -
05/07:00pm 26.8 E 7 9 1014.7 - 0.0 - - - - - - -
05/06:30pm 26.8 ENE 7 10 1014.2 - 0.0 - - - - - - -
05/06:00pm 26.6 ESE 6 8 1014.0 - 0.0 - - - - - - -
05/05:30pm 26.9 ESE 5 9 1013.7 - 0.0 - - - - - - -
05/05:00pm 27.0 ESE 7 9 1013.4 - 0.0 - - - - - - -
05/04:30pm 27.5 ESE 7 9 1013.2 - 0.0 - - - - - - -
05/04:00pm 27.5 ESE 7 10 1013.0 - 0.0 - - - - - - -
05/03:30pm 26.9 E 7 9 1013.0 - 0.0 - - - - - - -
05/03:00pm 26.3 ESE 10 13 1013.0 - 0.0 - - - - - - -
05/02:30pm 25.8 NE 13 15 1013.4 - 0.0 - - - - - - -
05/02:00pm 26.0 ENE 11 14 1013.5 - 0.0 - - - - - - -
05/01:30pm 28.1 SE 5 8 1013.8 - 0.0 - - - - - - -
05/01:00pm 28.2 SE 6 10 1014.2 - 0.0 - - - - - - -
05/12:30pm 26.8 S 8 10 1014.7 - 0.0 - - - - - - -
05/12:00pm 26.7 S 7 11 1015.0 - 0.0 - - - - - - -
05/11:30am 26.3 S 10 11 1015.6 - 0.0 - - - - - - -
05/11:00am 26.2 S 10 11 1015.9 - 0.0 - - - - - - -
05/10:30am 27.5 S 4 6 1016.3 - 0.0 - - - - - - -
05/10:00am 27.9 SSE 4 7 1016.4 - 0.0 - - - - - - -
05/09:30am 26.8 S 6 7 1016.4 - 0.0 - - - - - - -
05/09:00am 26.8 S 6 8 1016.3 - 0.0 - - - - - - -
05/08:30am 26.6 S 7 9 1016.1 - 0.0 - - - - - - -
05/08:00am 25.7 SSW 6 8 1015.8 - 0.0 - - - - - - -
05/07:30am 24.8 SSW 7 8 1015.5 - 0.0 - - - - - - -
05/07:00am 26.3 S 5 6 1015.2 - 0.0 - - - - - - -
05/06:30am 26.1 SE 5 8 1014.9 - 0.0 - - - - - - -
05/06:00am 26.2 SE 5 9 1014.5 - 0.0 - - - - - - -
05/05:30am 26.2 SE 6 11 1014.3 - 0.0 - - - - - - -
05/05:00am 26.2 SE 7 11 1014.0 - 0.0 - - - - - - -
05/04:30am 26.2 SE 6 8 1013.9 - 0.0 - - - - - - -
05/04:00am 26.2 ESE 5 8 1013.9 - 0.0 - - - - - - -
05/03:30am 26.2 SE 5 7 1013.9 - 0.0 - - - - - - -
05/03:00am 26.3 SE 5 9 1014.1 - 0.0 - - - - - - -
05/02:30am 26.2 SE 5 8 1014.1 - 0.0 - - - - - - -
05/02:00am 26.3 SE 6 9 1014.3 - 0.0 - - - - - - -
05/01:30am 26.4 ESE 7 11 1014.3 - 0.0 - - - - - - -
05/01:00am 26.4 ESE 6 10 1014.7 - 0.0 - - - - - - -
05/12:30am 26.4 SE 5 9 1015.0 - 0.0 - - - - - - -
05/12:00am 26.5 ESE 7 11 1014.8 - 0.0 - - - - - - -
 
Date/Time
EST
Temp

°C
Wind Pressure Rain
since 9am
mm
Weather Cloud Vis
km
Sea
Height
m
Swell
Dir
 
Speed
knots
Gust
knots
hPa Trend Height
m
Period
s
Dir
04/11:30pm 26.5 SE 7 10 1015.2 - 0.0 - - - - - - -
04/11:00pm 26.6 ESE 7 11 1015.3 - 0.0 - - - - - - -
04/10:30pm 26.6 ESE 6 10 1015.5 - 0.0 - - - - - - -
04/10:00pm 26.7 E 6 8 1015.4 - 0.0 - - - - - - -
04/09:30pm 26.7 E 6 8 1015.2 - 0.0 - - - - - - -
04/09:00pm 26.7 ENE 7 9 1014.9 - 0.0 - - - - - - -
04/08:30pm 26.8 NE 9 11 1014.8 - 0.0 - - - - - - -
04/08:00pm 26.8 NE 10 11 1014.5 - 0.0 - - - - - - -
04/07:30pm 26.8 NE 9 9 1014.4 - 0.0 - - - - - - -
04/07:00pm 26.8 NNE 9 10 1013.8 - 0.0 - - - - - - -
04/06:30pm 26.8 NNE 9 11 1013.4 - 0.0 - - - - - - -
04/06:00pm 26.8 NNE 9 11 1013.0 - 0.0 - - - - - - -
04/05:30pm 26.8 NNE 10 11 1012.6 - 0.0 - - - - - - -
04/05:00pm 27.1 NNE 9 11 1012.5 - 0.0 - - - - - - -
04/04:30pm 27.5 NNE 9 10 1012.3 - 0.0 - - - - - - -
04/04:00pm 27.2 NNE 9 11 1012.1 - 0.0 - - - - - - -
04/03:30pm 26.9 NE 8 10 1012.1 - 0.0 - - - - - - -
04/03:00pm 27.0 NE 10 11 1012.1 - 0.0 - - - - - - -
04/02:30pm 27.0 NE 8 10 1012.2 - 0.0 - - - - - - -
04/02:00pm 27.5 ENE 7 9 1012.4 - 0.0 - - - - - - -
04/01:30pm 26.6 NE 8 9 1012.7 - 0.0 - - - - - - -
04/01:00pm 27.2 ENE 5 7 1013.2 - 0.0 - - - - - - -
04/12:30pm 28.5 ENE 4 6 1013.6 - 0.0 - - - - - - -
04/12:00pm 28.0 ESE 4 5 1014.1 - 0.0 - - - - - - -
04/11:30am 26.4 SSW 3 5 1014.6 - 0.0 - - - - - - -
04/11:00am 26.0 SSW 5 6 1015.0 - 0.0 - - - - - - -
04/10:30am 25.9 SW 6 7 1015.3 - 0.0 - - - - - - -
04/10:00am 25.6 WSW 5 7 1015.4 - 0.0 - - - - - - -
04/09:30am 25.2 WSW 7 9 1015.6 - 0.0 - - - - - - -
04/09:00am 24.7 WSW 10 11 1015.6 - 0.0 - - - - - - -
04/08:30am 24.2 WSW 10 11 1015.4 - 0.0 - - - - - - -
04/08:00am 23.7 SW 13 17 1015.4 - 0.0 - - - - - - -
04/07:30am 25.1 WSW 6 8 1015.1 - 0.0 - - - - - - -
04/07:00am 24.3 WSW 7 9 1014.8 - 0.0 - - - - - - -
04/06:30am 24.0 WSW 7 8 1014.4 - 0.0 - - - - - - -
04/06:00am 23.9 SW 9 11 1014.3 - 0.0 - - - - - - -
04/05:30am 23.8 SW 10 11 1013.8 - 0.0 - - - - - - -
04/05:00am 23.8 SW 10 11 1013.6 - 0.0 - - - - - - -
04/04:30am 23.9 SW 10 11 1013.3 - 0.0 - - - - - - -
04/04:00am 24.3 SW 10 11 1013.4 - 0.0 - - - - - - -
04/03:30am 24.6 W 7 7 1012.9 - 0.0 - - - - - - -
04/03:00am 24.8 WSW 6 7 1012.8 - 0.0 - - - - - - -
04/02:30am 25.0 SW 6 7 1013.1 - 0.0 - - - - - - -
04/02:00am 25.4 W 4 5 1013.1 - 0.0 - - - - - - -
04/01:30am 25.5 W 5 7 1013.4 - 0.0 - - - - - - -
04/01:00am 25.7 WSW 6 7 1013.6 - 0.0 - - - - - - -
04/12:30am 26.1 NW 6 7 1013.8 - 0.0 - - - - - - -
04/12:00am 26.2 NNW 8 10 1013.6 - 0.0 - - - - - - -
 
Date/Time
EST
Temp

°C
Wind Pressure Rain
since 9am
mm
Weather Cloud Vis
km
Sea
Height
m
Swell
Dir
 
Speed
knots
Gust
knots
hPa Trend Height
m
Period
s
Dir
03/11:30pm 26.2 NNW 8 9 1013.8 - 0.0 - - - - - - -
03/11:00pm 26.2 NNW 8 9 1014.1 - 0.0 - - - - - - -
03/10:30pm 26.2 NNW 9 11 1014.2 - 0.0 - - - - - - -
03/10:00pm 26.3 NNW 9 11 1014.2 - 0.0 - - - - - - -
03/09:30pm 26.5 N 10 12 1014.3 - 0.0 - - - - - - -
03/09:00pm 26.6 NNE 10 12 1014.0 - 0.0 - - - - - - -
03/08:30pm 26.6 NNE 11 13 1013.9 - 0.0 - - - - - - -
03/08:00pm 26.8 N 9 12 1013.7 - 0.0 - - - - - - -
03/07:30pm 26.8 NNE 9 11 1013.1 - 0.0 - - - - - - -
03/07:00pm 26.7 NNE 11 13 1012.8 - 0.0 - - - - - - -
03/06:30pm 26.8 NNE 11 12 1012.4 - 0.0 - - - - - - -
03/06:00pm 26.8 NE 11 11 1012.1 - 0.0 - - - - - - -
03/05:30pm 26.9 NE 9 11 1011.9 - 0.0 - - - - - - -
03/05:00pm 26.9 NE 9 10 1011.6 - 0.0 - - - - - - -
03/04:30pm 26.9 NE 8 9 1011.5 - 0.0 - - - - - - -
03/04:00pm 26.9 NE 8 10 1011.2 - 0.0 - - - - - - -
03/03:30pm 27.1 NE 7 9 1011.0 - 0.0 - - - - - - -
03/03:00pm 27.0 NE 7 9 1011.2 - 0.0 - - - - - - -
03/02:30pm 27.7 ENE 6 8 1011.3 - 0.0 - - - - - - -
03/02:00pm 28.0 ESE 5 7 1011.7 - 0.0 - - - - - - -
03/01:30pm 28.2 ENE 5 7 1012.1 - 0.0 - - - - - - -
03/01:00pm 27.5 E 5 6 1012.5 - 0.0 - - - - - - -
03/12:30pm 27.7 E 5 6 1012.8 - 0.0 - - - - - - -
03/12:00pm 28.0 ESE 4 6 1013.2 - 0.0 - - - - - - -

Other Formats:

Comma delimited format used in spreadsheet applications
http://www.bom.gov.au/fwo/IDQ60701/IDQ60701.94295.axf

JavaScript Object Notation format (JSON) in row-major order
http://www.bom.gov.au/fwo/IDQ60701/IDQ60701.94295.json